createdAt,value
2018-09-03T00:00:55.970Z,50.05
2018-09-03T00:03:24.606Z,50.24
2018-09-03T00:05:52.251Z,50.17
2018-09-03T00:08:19.826Z,50.34
2018-09-03T00:10:47.847Z,51.01
2018-09-03T00:13:15.439Z,50.68
2018-09-03T00:15:43.035Z,51.33
2018-09-03T00:18:10.607Z,50.46
2018-09-03T00:20:38.633Z,51.60
2018-09-03T00:23:06.258Z,51.64
2018-09-03T00:25:34.698Z,51.58
2018-09-03T00:28:02.278Z,51.02
2018-09-03T00:30:30.247Z,51.28
2018-09-03T00:33:03.462Z,51.81
2018-09-03T00:35:36.014Z,51.77
2018-09-03T00:38:11.322Z,51.92
2018-09-03T00:40:43.848Z,52.60
2018-09-03T00:43:16.496Z,52.86
2018-09-03T00:45:49.439Z,52.61
2018-09-03T00:48:17.059Z,52.67
2018-09-03T00:50:44.632Z,52.68
2018-09-03T00:53:16.460Z,53.28
2018-09-03T00:55:44.309Z,53.51
2018-09-03T00:58:12.002Z,53.05
2018-09-03T01:00:39.573Z,53.52
2018-09-03T01:03:07.122Z,54.09
2018-09-03T01:05:34.749Z,53.52
2018-09-03T01:08:02.363Z,53.43
2018-09-03T01:10:30.363Z,53.82
2018-09-03T01:12:57.943Z,54.30
2018-09-03T01:15:27.283Z,54.46
2018-09-03T01:17:54.875Z,54.19
2018-09-03T01:20:23.546Z,54.22
2018-09-03T01:22:51.130Z,53.73
2018-09-03T01:25:18.733Z,53.80
2018-09-03T01:27:46.823Z,54.07
2018-09-03T01:30:14.430Z,54.68
2018-09-03T01:32:42.771Z,54.16
2018-09-03T01:35:10.985Z,54.31
2018-09-03T01:37:38.977Z,54.30
2018-09-03T01:40:06.603Z,54.15
2018-09-03T01:42:35.391Z,54.50
2018-09-03T01:45:02.965Z,55.22
2018-09-03T01:47:31.828Z,54.28
2018-09-03T01:50:00.262Z,54.91
2018-09-03T01:52:28.463Z,54.63
2018-09-03T01:54:56.088Z,54.53
2018-09-03T01:57:24.022Z,54.46
2018-09-03T01:59:51.616Z,55.31
2018-09-03T02:02:19.222Z,55.15
2018-09-03T02:04:48.972Z,54.43
2018-09-03T02:07:17.594Z,55.15
2018-09-03T02:09:45.178Z,54.47
2018-09-03T02:12:13.019Z,54.21
2018-09-03T02:17:20.350Z,55.01
2018-09-03T02:19:47.965Z,54.94
2018-09-03T02:22:15.569Z,54.82
2018-09-03T02:24:43.652Z,54.98
2018-09-03T02:27:11.312Z,54.79
2018-09-03T02:29:38.923Z,55.56
2018-09-03T02:32:06.523Z,55.57
2018-09-03T02:34:34.120Z,55.59
2018-09-03T02:37:01.763Z,54.92
2018-09-03T02:39:30.071Z,54.97
2018-09-03T02:41:57.942Z,55.49
2018-09-03T02:44:25.655Z,55.00
2018-09-03T02:46:54.063Z,54.87
2018-09-03T02:49:22.075Z,54.63
2018-09-03T02:51:49.699Z,54.69
2018-09-03T02:54:17.275Z,54.39
2018-09-03T02:56:45.299Z,54.42
2018-09-03T02:59:12.886Z,55.16
2018-09-03T03:01:40.457Z,54.38
2018-09-03T03:04:08.466Z,54.45
2018-09-03T03:06:37.205Z,54.38
2018-09-03T03:09:05.448Z,55.05
2018-09-03T03:11:34.212Z,54.28
2018-09-03T03:14:01.843Z,54.08
2018-09-03T03:16:29.448Z,54.92
2018-09-03T03:18:57.466Z,54.34
2018-09-03T03:21:25.079Z,54.69
2018-09-03T03:23:52.719Z,54.92
2018-09-03T03:26:20.320Z,54.34
2018-09-03T03:28:48.351Z,54.37
2018-09-03T03:31:15.950Z,54.95
2018-09-03T03:33:44.236Z,54.46
2018-09-03T03:36:12.144Z,54.83
2018-09-03T03:38:40.452Z,55.69
2018-09-03T03:41:08.087Z,54.80
2018-09-03T03:43:35.696Z,55.33
2018-09-03T03:46:04.636Z,55.27
2018-09-03T03:48:34.024Z,55.64
2018-09-03T03:51:01.643Z,55.62
2018-09-03T03:53:29.618Z,55.71
2018-09-03T03:55:58.187Z,55.96
2018-09-03T03:58:25.834Z,55.90
2018-09-03T04:00:53.757Z,55.31
2018-09-03T04:03:21.423Z,55.34
2018-09-03T04:05:49.031Z,55.22
2018-09-03T04:08:17.103Z,55.80
2018-09-03T04:10:45.593Z,55.56
2018-09-03T04:13:13.224Z,55.99
2018-09-03T04:15:40.870Z,55.78
2018-09-03T04:18:08.991Z,55.88
2018-09-03T04:20:36.603Z,56.47
2018-09-03T04:23:04.363Z,55.90
2018-09-03T04:25:32.008Z,56.52
2018-09-03T04:28:00.027Z,56.27
2018-09-03T04:30:27.747Z,56.83
2018-09-03T04:32:56.192Z,57.30
2018-09-03T04:35:24.328Z,56.91
2018-09-03T04:37:53.659Z,56.85
2018-09-03T04:40:21.281Z,56.84
2018-09-03T04:42:49.382Z,57.12
2018-09-03T04:45:18.381Z,57.82
2018-09-03T04:47:45.968Z,57.75
2018-09-03T04:50:13.903Z,57.87
2018-09-03T04:52:41.514Z,57.28
2018-09-03T04:55:09.147Z,57.28
2018-09-03T04:57:37.199Z,57.73
2018-09-03T05:00:04.840Z,57.07
2018-09-03T05:02:32.508Z,57.32
2018-09-03T05:05:01.034Z,57.59
2018-09-03T05:07:29.266Z,56.71
2018-09-03T05:09:56.887Z,57.41
2018-09-03T05:12:24.871Z,57.27
2018-09-03T05:14:52.520Z,56.82
2018-09-03T05:17:20.309Z,56.66
2018-09-03T05:19:48.979Z,57.17
2018-09-03T05:22:16.600Z,57.23
2018-09-03T05:24:45.566Z,56.75
2018-09-03T05:27:13.697Z,56.48
2018-09-03T05:29:41.417Z,56.99
2018-09-03T05:32:09.041Z,56.98
2018-09-03T05:34:36.703Z,56.60
2018-09-03T05:37:04.377Z,56.79
2018-09-03T05:39:34.003Z,57.13
2018-09-03T05:42:01.634Z,56.50
2018-09-03T05:44:29.883Z,56.53
2018-09-03T05:46:57.818Z,57.05
2018-09-03T05:49:25.667Z,56.33
2018-09-03T05:51:53.520Z,56.81
2018-09-03T05:54:22.173Z,56.96
2018-09-03T05:56:50.772Z,56.99
2018-09-03T05:59:18.493Z,56.73
2018-09-03T06:01:46.541Z,57.14
2018-09-03T06:04:14.251Z,56.39
2018-09-03T06:06:41.843Z,56.65
2018-09-03T06:09:10.693Z,57.10
2018-09-03T06:11:38.361Z,56.97
2018-09-03T06:14:06.782Z,56.48
2018-09-03T06:16:35.375Z,57.39
2018-09-03T06:19:03.062Z,56.62
2018-09-03T06:21:30.681Z,56.63
2018-09-03T06:23:58.751Z,56.64
2018-09-03T06:26:26.368Z,57.03
2018-09-03T06:28:54.991Z,57.29
2018-09-03T06:31:23.077Z,56.88
2018-09-03T06:33:50.702Z,57.20
2018-09-03T06:36:18.346Z,57.90
2018-09-03T06:38:46.471Z,57.71
2018-09-03T06:41:14.295Z,57.58
2018-09-03T06:43:43.527Z,57.72
2018-09-03T06:46:11.600Z,57.85
2018-09-03T06:48:40.438Z,57.70
2018-09-03T06:51:08.874Z,57.90
2018-09-03T06:53:37.809Z,57.13
2018-09-03T06:56:05.446Z,57.14
2018-09-03T06:58:34.347Z,57.40
2018-09-03T07:01:05.176Z,56.99
2018-09-03T07:03:32.778Z,57.34
2018-09-03T07:06:00.364Z,56.58
2018-09-03T07:08:30.304Z,56.61
2018-09-03T07:10:57.969Z,57.22
2018-09-03T07:13:26.339Z,56.77
2018-09-03T07:15:55.360Z,56.94
2018-09-03T07:18:24.695Z,56.75
2018-09-03T07:20:52.371Z,57.47
2018-09-03T07:23:20.458Z,57.25
2018-09-03T07:25:49.031Z,56.55
2018-09-03T07:28:17.509Z,57.28
2018-09-03T07:30:45.574Z,56.93
2018-09-03T07:33:13.206Z,57.10
2018-09-03T07:35:40.904Z,57.61
2018-09-03T07:38:09.605Z,57.13
2018-09-03T07:40:39.175Z,57.27
2018-09-03T07:43:06.828Z,57.35
2018-09-03T07:45:34.799Z,57.28
2018-09-03T07:48:02.471Z,57.46
2018-09-03T07:50:30.782Z,57.00
2018-09-03T07:53:00.372Z,57.25
2018-09-03T07:55:28.022Z,56.90
2018-09-03T07:57:55.690Z,57.17
2018-09-03T08:00:24.416Z,57.31
2018-09-03T08:02:52.075Z,57.06
2018-09-03T08:05:19.726Z,57.13
2018-09-03T08:07:47.759Z,56.88
2018-09-03T08:10:15.360Z,56.73
2018-09-03T08:12:44.936Z,56.42
2018-09-03T08:15:13.016Z,56.41
2018-09-03T08:17:41.936Z,56.72
2018-09-03T08:20:09.726Z,56.50
2018-09-03T08:22:37.622Z,56.28
2018-09-03T08:25:05.232Z,56.16
2018-09-03T08:27:33.915Z,56.28
2018-09-03T08:30:02.350Z,56.26
2018-09-03T08:32:30.005Z,56.81
2018-09-03T08:34:59.330Z,56.29
2018-09-03T08:37:27.559Z,56.02
2018-09-03T08:39:56.367Z,56.37
2018-09-03T08:42:24.770Z,57.36
2018-09-03T08:44:53.859Z,56.99
2018-09-03T08:47:22.475Z,57.70
2018-09-03T08:49:50.151Z,57.96
2018-09-03T08:52:19.368Z,57.94
2018-09-03T08:54:47.331Z,57.71
2018-09-03T08:57:15.696Z,58.04
2018-09-03T08:59:44.496Z,58.27
2018-09-03T09:02:12.743Z,57.81
2018-09-03T09:04:40.421Z,57.71
2018-09-03T09:07:08.582Z,58.21
2018-09-03T09:09:36.302Z,57.24
2018-09-03T09:12:04.896Z,57.68
2018-09-03T09:14:32.862Z,57.57
2018-09-03T09:17:01.572Z,57.03
2018-09-03T09:19:29.231Z,57.52
2018-09-03T09:21:59.204Z,56.95
2018-09-03T09:24:26.977Z,57.44
2018-09-03T09:26:54.579Z,57.32
2018-09-03T09:29:22.659Z,57.52
2018-09-03T09:31:50.367Z,57.72
2018-09-03T09:34:17.980Z,56.92
2018-09-03T09:36:46.079Z,56.46
2018-09-03T09:39:14.582Z,56.78
2018-09-03T09:41:42.298Z,55.46
2018-09-03T09:44:11.221Z,55.39
2018-09-03T09:46:38.911Z,55.56
2018-09-03T09:49:06.550Z,55.42
2018-09-03T09:51:35.510Z,55.53
2018-09-03T09:54:03.170Z,56.37
2018-09-03T09:56:31.742Z,55.60
2018-09-03T09:58:59.798Z,56.66
2018-09-03T10:01:32.321Z,55.51
2018-09-03T10:03:59.937Z,55.74
2018-09-03T10:06:29.972Z,54.90
2018-09-03T10:08:58.772Z,55.03
2018-09-03T10:11:27.900Z,54.39
2018-09-03T10:13:56.567Z,54.53
2018-09-03T10:16:24.205Z,54.75
2018-09-03T10:18:51.865Z,54.75
2018-09-03T10:21:21.832Z,54.61
2018-09-03T10:23:49.440Z,54.30
2018-09-03T10:26:17.107Z,53.32
2018-09-03T10:28:48.216Z,52.84
2018-09-03T10:31:17.605Z,52.03
2018-09-03T10:33:46.207Z,50.91
2018-09-03T10:36:14.842Z,48.81
2018-09-03T10:38:42.482Z,48.04
2018-09-03T10:41:12.250Z,48.38
2018-09-03T10:43:40.783Z,48.09
2018-09-03T10:46:09.468Z,48.91
2018-09-03T10:48:40.549Z,48.93
2018-09-03T10:51:08.794Z,50.33
2018-09-03T10:53:37.342Z,50.09
2018-09-03T10:56:05.458Z,51.37
2018-09-03T10:58:34.031Z,51.84
2018-09-03T11:01:01.748Z,52.07
2018-09-03T11:03:31.270Z,52.27
2018-09-03T11:05:59.738Z,51.86
2018-09-03T11:08:27.395Z,52.20
2018-09-03T11:10:55.373Z,52.78
2018-09-03T11:13:24.262Z,53.48
2018-09-03T11:15:51.908Z,53.77
2018-09-03T11:18:21.366Z,53.87
2018-09-03T11:20:49.064Z,54.24
2018-09-03T11:23:16.727Z,54.38
2018-09-03T11:25:44.882Z,54.72
2018-09-03T11:28:13.375Z,54.02
2018-09-03T11:30:42.859Z,54.15
2018-09-03T11:33:12.282Z,54.60
2018-09-03T11:35:41.656Z,54.07
2018-09-03T11:38:09.346Z,54.32
2018-09-03T11:40:37.731Z,54.23
2018-09-03T11:43:05.426Z,53.35
2018-09-03T11:45:33.069Z,52.95
2018-09-03T11:48:01.152Z,53.03
2018-09-03T11:50:28.839Z,53.08
2018-09-03T11:53:00.425Z,53.15
2018-09-03T11:55:28.475Z,52.59
2018-09-03T11:57:58.240Z,53.30
2018-09-03T12:00:28.639Z,52.81
2018-09-03T12:02:58.284Z,52.71
2018-09-03T12:05:29.530Z,52.74
2018-09-03T12:08:00.946Z,52.88
2018-09-03T12:10:30.555Z,53.63
2018-09-03T12:12:58.301Z,53.09
2018-09-03T12:15:39.526Z,53.51
2018-09-03T12:18:07.756Z,53.47
2018-09-03T12:20:36.184Z,52.90
2018-09-03T12:25:25.552Z,53.50
2018-09-03T12:27:53.244Z,52.84
2018-09-03T12:30:20.991Z,53.14
2018-09-03T12:32:50.542Z,52.97
2018-09-03T12:35:18.206Z,53.39
2018-09-03T12:37:45.825Z,52.87
2018-09-03T12:40:14.094Z,52.55
2018-09-03T12:42:42.261Z,53.06
2018-09-03T12:45:09.937Z,52.55
2018-09-03T12:47:39.369Z,52.07
2018-09-03T12:50:07.097Z,52.30
2018-09-03T12:52:36.450Z,51.31
2018-09-03T12:55:05.607Z,51.22
2018-09-03T12:57:36.310Z,50.34
2018-09-03T13:00:05.669Z,50.27
2018-09-03T13:02:39.412Z,49.77
2018-09-03T13:05:04.961Z,49.06
2018-09-03T13:07:33.251Z,48.57
2018-09-03T13:10:01.337Z,47.71
2018-09-03T13:12:29.136Z,46.86
2018-09-03T13:14:59.430Z,47.45
2018-09-03T13:17:27.436Z,47.82
2018-09-03T13:19:56.585Z,49.58
2018-09-03T13:22:24.248Z,50.39
2018-09-03T13:24:52.292Z,50.74
2018-09-03T13:27:20.033Z,51.04
2018-09-03T13:29:48.482Z,52.49
2018-09-03T13:32:16.450Z,53.31
2018-09-03T13:34:45.164Z,53.17
2018-09-03T13:37:14.893Z,53.97
2018-09-03T13:39:42.921Z,54.75
2018-09-03T13:42:10.641Z,55.03
2018-09-03T13:44:38.520Z,55.37
2018-09-03T13:47:06.532Z,54.55
2018-09-03T13:49:35.122Z,54.93
2018-09-03T13:52:02.999Z,55.27
2018-09-03T13:54:30.797Z,56.05
2018-09-03T13:56:58.486Z,55.74
2018-09-03T13:59:26.476Z,55.83
2018-09-03T14:01:55.398Z,55.46
2018-09-03T14:04:25.518Z,55.62
2018-09-03T14:06:54.230Z,55.73
2018-09-03T14:09:22.016Z,54.96
2018-09-03T14:11:51.268Z,55.31
2018-09-03T14:14:20.056Z,55.70
2018-09-03T14:16:48.598Z,55.31
2018-09-03T14:19:17.926Z,55.80
2018-09-03T14:21:46.055Z,56.41
2018-09-03T14:24:15.325Z,55.68
2018-09-03T14:26:43.458Z,56.18
2018-09-03T14:31:43.739Z,56.36
2018-09-03T14:34:12.737Z,57.07
2018-09-03T14:36:45.619Z,56.48
2018-09-03T14:39:13.699Z,57.08
2018-09-03T14:41:42.422Z,57.45
2018-09-03T14:44:13.320Z,57.56
2018-09-03T14:46:43.474Z,56.80
2018-09-03T14:49:11.570Z,57.57
2018-09-03T14:51:40.342Z,56.95
2018-09-03T14:54:08.192Z,57.06
2018-09-03T14:56:36.256Z,57.79
2018-09-03T14:59:06.095Z,57.33
2018-09-03T15:01:36.138Z,57.11
2018-09-03T15:04:04.512Z,57.75
2018-09-03T15:06:33.718Z,57.95
2018-09-03T15:09:02.230Z,58.02
2018-09-03T15:11:31.378Z,57.44
2018-09-03T15:14:00.830Z,58.26
2018-09-03T15:16:34.454Z,57.78
2018-09-03T15:19:04.617Z,58.43
2018-09-03T15:21:34.100Z,57.53
2018-09-03T15:24:03.964Z,58.05
2018-09-03T15:26:32.659Z,58.33
2018-09-03T15:29:00.906Z,58.11
2018-09-03T15:31:28.590Z,58.20
2018-09-03T15:33:56.559Z,57.91
2018-09-03T15:36:24.503Z,58.11
2018-09-03T15:38:53.295Z,57.70
2018-09-03T15:41:22.558Z,57.30
2018-09-03T15:43:50.854Z,57.22
2018-09-03T15:46:19.269Z,57.85
2018-09-03T15:48:49.576Z,57.01
2018-09-03T15:51:18.228Z,57.73
2018-09-03T15:53:50.706Z,57.79
2018-09-03T15:56:18.879Z,57.96
2018-09-03T15:58:47.116Z,57.92
2018-09-03T16:01:16.593Z,57.87
2018-09-03T16:03:45.237Z,57.23
2018-09-03T16:06:12.920Z,58.18
2018-09-03T16:08:41.349Z,57.45
2018-09-03T16:11:09.440Z,57.32
2018-09-03T16:13:38.665Z,57.62
2018-09-03T16:16:06.340Z,57.85
2018-09-03T16:18:34.575Z,57.72
2018-09-03T16:21:02.652Z,58.26
2018-09-03T16:23:30.461Z,57.87
2018-09-03T16:25:58.668Z,58.34
2018-09-03T16:28:27.825Z,58.16
2018-09-03T16:30:56.559Z,57.91
2018-09-03T16:33:25.010Z,58.26
2018-09-03T16:35:52.837Z,57.62
2018-09-03T16:38:20.606Z,57.54
2018-09-03T16:40:49.946Z,58.31
2018-09-03T16:43:18.586Z,57.58
2018-09-03T16:45:46.388Z,57.61
2018-09-03T16:48:14.409Z,57.88
2018-09-03T16:50:42.900Z,58.04
2018-09-03T16:53:11.624Z,57.77
2018-09-03T16:55:40.839Z,58.38
2018-09-03T16:58:12.459Z,57.72
2018-09-03T17:00:41.049Z,58.21
2018-09-03T17:03:09.225Z,57.87
2018-09-03T17:05:36.940Z,57.67
2018-09-03T17:08:04.724Z,57.70
2018-09-03T17:10:34.887Z,58.26
2018-09-03T17:13:02.742Z,58.04
2018-09-03T17:15:31.049Z,58.70
2018-09-03T17:18:00.509Z,58.83
2018-09-03T17:20:28.421Z,58.59
2018-09-03T17:22:58.389Z,58.65
2018-09-03T17:25:26.599Z,58.68
2018-09-03T17:27:55.378Z,58.18
2018-09-03T17:30:24.227Z,58.44
2018-09-03T17:32:51.983Z,58.72
2018-09-03T17:35:19.693Z,59.23
2018-09-03T17:37:51.444Z,59.51
2018-09-03T17:40:19.072Z,59.01
2018-09-03T17:42:46.762Z,59.96
2018-09-03T17:45:14.907Z,59.92
2018-09-03T17:47:42.640Z,60.00
2018-09-03T17:50:11.827Z,59.76
2018-09-03T17:52:39.936Z,59.55
2018-09-03T17:55:08.601Z,60.47
2018-09-03T17:57:36.326Z,60.54
2018-09-03T18:00:07.031Z,60.91
2018-09-03T18:02:34.845Z,60.08
2018-09-03T18:05:02.644Z,60.61
2018-09-03T18:07:31.591Z,60.86
2018-09-03T18:10:01.012Z,60.28
2018-09-03T18:12:28.654Z,61.03
2018-09-03T18:14:58.572Z,60.56
2018-09-03T18:17:29.266Z,60.95
2018-09-03T18:19:56.930Z,60.98
2018-09-03T18:22:24.939Z,60.94
2018-09-03T18:24:53.162Z,61.13
2018-09-03T18:27:21.423Z,60.56
2018-09-03T18:29:49.456Z,61.00
2018-09-03T18:32:18.326Z,61.21
2018-09-03T18:34:47.364Z,61.02
2018-09-03T18:37:15.337Z,60.52
2018-09-03T18:39:43.667Z,61.29
2018-09-03T18:42:11.298Z,60.78
2018-09-03T18:44:40.364Z,61.30
2018-09-03T18:47:09.187Z,61.31
2018-09-03T18:49:37.531Z,61.45
2018-09-03T18:52:05.542Z,61.68
2018-09-03T18:54:33.258Z,61.76
2018-09-03T18:57:01.511Z,61.01
2018-09-03T18:59:30.343Z,61.81
2018-09-03T19:01:58.004Z,61.83
2018-09-03T19:04:25.671Z,61.13
2018-09-03T19:06:53.805Z,61.84
2018-09-03T19:09:22.982Z,62.10
2018-09-03T19:11:51.731Z,61.69
2018-09-03T19:14:21.442Z,62.12
2018-09-03T19:16:50.509Z,62.07
2018-09-03T19:19:19.747Z,62.36
2018-09-03T19:21:49.379Z,61.61
2018-09-03T19:24:17.070Z,62.29
2018-09-03T19:26:45.547Z,62.30
2018-09-03T19:29:15.604Z,62.61
2018-09-03T19:31:49.221Z,62.91
2018-09-03T19:34:17.666Z,62.43
2018-09-03T19:36:47.411Z,62.48
2018-09-03T19:39:15.843Z,62.48
2018-09-03T19:41:43.441Z,62.46
2018-09-03T19:44:14.221Z,63.11
2018-09-03T19:46:43.728Z,62.99
2018-09-03T19:49:11.740Z,63.33
2018-09-03T19:51:40.698Z,62.96
2018-09-03T19:54:09.731Z,62.85
2018-09-03T19:56:38.580Z,63.48
2018-09-03T19:59:07.711Z,64.07
2018-09-03T20:01:35.475Z,63.46
2018-09-03T20:04:03.193Z,63.77
2018-09-03T20:06:32.345Z,63.09
2018-09-03T20:09:00.083Z,62.99
2018-09-03T20:11:29.609Z,63.99
2018-09-03T20:13:57.783Z,63.79
2018-09-03T20:16:25.452Z,63.76
2018-09-03T20:18:54.470Z,64.57
2018-09-03T20:21:22.525Z,63.99
2018-09-03T20:23:51.242Z,64.59
2018-09-03T20:26:19.877Z,64.11
2018-09-03T20:28:48.769Z,64.58
2018-09-03T20:31:16.572Z,64.83
2018-09-03T20:33:45.436Z,64.64
2018-09-03T20:36:13.730Z,64.48
2018-09-03T20:38:43.627Z,64.54
2018-09-03T20:41:12.967Z,64.53
2018-09-03T20:43:44.724Z,64.19
2018-09-03T20:46:13.677Z,64.40
2018-09-03T20:48:41.758Z,64.68
2018-09-03T20:51:09.775Z,64.75
2018-09-03T20:53:41.244Z,64.82
2018-09-03T20:56:11.942Z,63.80
2018-09-03T20:58:43.729Z,64.69
2018-09-03T21:01:11.447Z,64.63
2018-09-03T21:03:53.258Z,65.19
2018-09-03T21:06:23.372Z,64.60
2018-09-03T21:08:51.065Z,65.02
2018-09-03T21:11:19.213Z,65.32
2018-09-03T21:13:48.278Z,65.03
2018-09-03T21:16:16.006Z,65.42
2018-09-03T21:18:43.703Z,65.45
2018-09-03T21:21:11.895Z,65.38
2018-09-03T21:23:42.480Z,64.92
2018-09-03T21:26:10.131Z,65.20
2018-09-03T21:28:38.770Z,65.29
2018-09-03T21:31:06.427Z,65.09
2018-09-03T21:33:34.136Z,65.97
2018-09-03T21:36:03.133Z,65.57
2018-09-03T21:38:32.044Z,65.84
2018-09-03T21:41:00.490Z,66.14
2018-09-03T21:43:29.386Z,66.14
2018-09-03T21:45:56.990Z,66.68
2018-09-03T21:48:25.355Z,66.65
2018-09-03T21:50:54.321Z,66.56
2018-09-03T21:53:24.697Z,67.28
2018-09-03T21:55:52.314Z,67.46
2018-09-03T21:58:21.207Z,67.69
2018-09-03T22:00:48.936Z,67.42
2018-09-03T22:03:16.612Z,68.16
2018-09-03T22:05:44.662Z,67.99
2018-09-03T22:08:12.966Z,67.66
2018-09-03T22:10:41.235Z,67.93
2018-09-03T22:13:09.175Z,67.56
2018-09-03T22:15:37.001Z,68.58
2018-09-03T22:18:04.764Z,68.63
2018-09-03T22:20:32.843Z,68.52
2018-09-03T22:23:00.519Z,68.73
2018-09-03T22:25:28.248Z,68.07
2018-09-03T22:27:56.287Z,68.96
2018-09-03T22:30:23.991Z,68.58
2018-09-03T22:32:51.689Z,68.72
2018-09-03T22:35:19.689Z,68.69
2018-09-03T22:37:47.313Z,68.74
2018-09-03T22:40:15.633Z,68.88
2018-09-03T22:42:43.675Z,68.49
2018-09-03T22:45:11.318Z,69.47
2018-09-03T22:47:38.979Z,69.30
2018-09-03T22:50:07.029Z,68.68
2018-09-03T22:52:35.701Z,69.33
2018-09-03T22:55:03.400Z,69.23
2018-09-03T22:57:31.425Z,69.83
2018-09-03T22:59:59.019Z,69.59
2018-09-03T23:02:26.647Z,70.61
2018-09-03T23:04:55.288Z,70.92
2018-09-03T23:07:22.920Z,71.16
2018-09-03T23:09:50.591Z,70.93
2018-09-03T23:12:18.711Z,70.88
2018-09-03T23:14:46.455Z,71.15
2018-09-03T23:17:14.080Z,71.12
2018-09-03T23:19:42.071Z,70.54
2018-09-03T23:22:09.699Z,70.86
2018-09-03T23:24:37.611Z,70.03
2018-09-03T23:27:06.735Z,70.55
2018-09-03T23:29:34.403Z,71.11
2018-09-03T23:32:03.228Z,71.07
2018-09-03T23:34:30.895Z,71.35
2018-09-03T23:36:58.523Z,70.70
2018-09-03T23:39:26.658Z,70.96
2018-09-03T23:41:54.254Z,70.55
2018-09-03T23:44:22.398Z,70.57
2018-09-03T23:46:50.551Z,70.84
2018-09-03T23:49:18.503Z,70.74
2018-09-03T23:51:46.104Z,71.34
2018-09-03T23:54:13.697Z,70.80
2018-09-03T23:56:41.367Z,71.45
2018-09-03T23:59:08.962Z,71.20
